Time;durP1;ratioP1;P1;durP2;ratioP2;P2;SDS_P1;SDS_P2;PMS_P1;PMS_P2;Temp;Humidity;BMP_temperature;BMP_pressure;BME280_temperature;BME280_humidity;BME280_pressure;Samples;Min_cycle;Max_cycle;Signal;HPM_P1;HPM_P2
2024/03/18 00:01:22;;;;;;;9.60;3.80;;;;;;;6.66;100.00;100376.55;108308;1254;73605;-65
2024/03/18 00:03:52;;;;;;;10.70;4.00;;;;;;;6.65;100.00;100377.27;108282;1254;71445;-65
2024/03/18 00:06:19;;;;;;;10.00;3.70;;;;;;;6.64;100.00;100373.31;108259;1253;71760;-65
2024/03/18 00:08:47;;;;;;;8.00;3.00;;;;;;;6.64;100.00;100371.39;108402;1254;61227;-65
2024/03/18 00:11:15;;;;;;;13.20;3.90;;;;;;;6.62;100.00;100367.50;108317;1254;61385;-65
2024/03/18 00:13:43;;;;;;;11.80;3.70;;;;;;;6.59;100.00;100372.16;108362;1254;75043;-64
2024/03/18 00:16:10;;;;;;;10.10;3.00;;;;;;;6.58;100.00;100371.08;108266;1254;72818;-66
2024/03/18 00:18:39;;;;;;;9.60;3.30;;;;;;;6.56;100.00;100368.23;108259;1254;71517;-65
2024/03/18 00:21:07;;;;;;;10.70;3.30;;;;;;;6.54;100.00;100365.44;108332;1254;61148;-66
2024/03/18 00:23:35;;;;;;;11.70;3.40;;;;;;;6.56;100.00;100363.29;108281;1252;61122;-64
2024/03/18 00:26:04;;;;;;;9.10;3.30;;;;;;;6.57;100.00;100357.94;108277;1253;73485;-68
2024/03/18 00:28:34;;;;;;;9.40;2.80;;;;;;;6.57;100.00;100360.48;108318;1252;71937;-65
2024/03/18 00:31:02;;;;;;;7.80;2.70;;;;;;;6.58;100.00;100359.98;108295;1254;70378;-66
2024/03/18 00:33:31;;;;;;;11.40;3.50;;;;;;;6.59;100.00;100362.81;109497;1253;59834;-65
2024/03/18 00:36:12;;;;;;;11.90;3.80;;;;;;;6.60;100.00;100363.57;109536;1253;58930;-65
2024/03/18 00:39:06;;;;;;;7.30;2.90;;;;;;;6.58;100.00;100366.35;109501;1252;73723;-65
2024/03/18 00:41:48;;;;;;;8.50;2.60;;;;;;;6.56;100.00;100367.15;109528;1252;71449;-65
2024/03/18 00:44:26;;;;;;;8.70;2.60;;;;;;;6.51;100.00;100363.61;109470;1252;74677;-65
2024/03/18 00:47:05;;;;;;;8.70;2.70;;;;;;;6.45;100.00;100362.36;109505;1253;59572;-65
2024/03/18 00:49:48;;;;;;;8.80;2.70;;;;;;;6.37;100.00;100359.49;109567;1252;60042;-65
2024/03/18 00:52:26;;;;;;;6.50;2.60;;;;;;;6.32;100.00;100354.73;109449;1252;76228;-65
2024/03/18 00:55:11;;;;;;;9.80;2.70;;;;;;;6.31;100.00;100352.80;109530;1252;72860;-65
2024/03/18 00:57:52;;;;;;;9.00;2.70;;;;;;;6.30;100.00;100353.58;109504;1254;72686;-65
2024/03/18 01:00:26;;;;;;;8.90;2.90;;;;;;;6.27;100.00;100350.29;109517;1252;59634;-65
2024/03/18 01:03:13;;;;;;;8.80;2.70;;;;;;;6.25;100.00;100351.20;109475;1252;61092;-65
2024/03/18 01:21:03;;;;;;;9.40;3.00;;;;;;;6.72;100.00;100341.64;108399;1261;60785;-64
2024/03/18 01:23:37;;;;;;;9.70;2.50;;;;;;;6.68;100.00;100341.60;110092;1243;60311;-65
2024/03/18 01:26:27;;;;;;;8.60;2.50;;;;;;;6.65;100.00;100341.06;110118;1243;72873;-66
2024/03/18 01:29:12;;;;;;;6.50;2.60;;;;;;;6.60;100.00;100339.80;110101;1243;73153;-65
2024/03/18 01:31:46;;;;;;;5.30;2.20;;;;;;;6.55;100.00;100340.13;110070;1244;72359;-64
2024/03/18 01:34:30;;;;;;;6.40;2.50;;;;;;;6.52;100.00;100342.55;110085;1244;59863;-65
2024/03/18 01:37:16;;;;;;;9.70;3.10;;;;;;;6.49;100.00;100344.84;110029;1243;61187;-64
2024/03/18 01:39:59;;;;;;;7.00;2.70;;;;;;;6.46;100.00;100342.07;110129;1244;71807;-65
2024/03/18 01:42:46;;;;;;;6.50;2.60;;;;;;;6.44;100.00;100339.79;110295;1241;72688;-65
2024/03/18 01:45:22;;;;;;;4.70;2.40;;;;;;;6.45;100.00;100333.83;110627;1235;73325;-64
2024/03/18 01:47:53;;;;;;;6.70;2.50;;;;;;;6.47;100.00;100334.65;110839;1237;60307;-66
2024/03/18 01:50:22;;;;;;;8.50;3.90;;;;;;;6.41;100.00;100332.48;110878;1237;60275;-65
2024/03/18 01:53:01;;;;;;;7.90;3.60;;;;;;;6.32;100.00;100331.59;110837;1237;73733;-65
2024/03/18 01:55:32;;;;;;;7.40;3.10;;;;;;;6.26;100.00;100332.16;110858;1235;72535;-66
2024/03/18 01:58:00;;;;;;;8.50;3.40;;;;;;;6.21;100.00;100332.66;110632;1240;72477;-66
2024/03/18 02:00:35;;;;;;;8.20;3.40;;;;;;;6.15;100.00;100330.17;110888;1235;60798;-65
2024/03/18 02:03:08;;;;;;;9.70;3.20;;;;;;;6.07;100.00;100329.38;110807;1235;60311;-66
2024/03/18 02:05:38;;;;;;;7.40;2.90;;;;;;;6.04;100.00;100322.90;110875;1235;72628;-65
2024/03/18 02:08:06;;;;;;;11.30;3.60;;;;;;;6.04;100.00;100326.77;110846;1235;73006;-67
2024/03/18 02:10:34;;;;;;;7.20;3.20;;;;;;;6.04;100.00;100327.35;110865;1236;71614;-65
2024/03/18 02:13:09;;;;;;;7.60;3.60;;;;;;;6.03;100.00;100329.20;110549;1235;60899;-65
2024/03/18 02:16:02;;;;;;;7.80;3.80;;;;;;;6.04;100.00;100330.22;110843;1235;60304;-65
2024/03/18 02:18:39;;;;;;;8.10;3.10;;;;;;;6.04;100.00;100327.20;110623;1240;74427;-66
2024/03/18 02:21:22;;;;;;;9.70;3.60;;;;;;;6.03;100.00;100324.73;110670;1239;72469;-65
2024/03/18 02:24:21;;;;;;;5.70;2.80;;;;;;;5.99;100.00;100326.67;110590;1239;72841;-65
2024/03/18 02:27:11;;;;;;;5.90;2.90;;;;;;;5.97;100.00;100330.02;110600;1235;60879;-64
2024/03/18 02:29:48;;;;;;;6.90;2.60;;;;;;;5.94;100.00;100329.30;110673;1240;60206;-65
2024/03/18 02:32:36;;;;;;;7.70;3.00;;;;;;;5.90;100.00;100327.50;110657;1240;74096;-65
2024/03/18 02:35:17;;;;;;;6.90;2.70;;;;;;;5.88;100.00;100325.77;110698;1235;72445;-66
2024/03/18 02:38:00;;;;;;;6.00;2.80;;;;;;;5.87;100.00;100327.22;110676;1239;72537;-66
2024/03/18 02:40:37;;;;;;;8.90;3.40;;;;;;;5.85;100.00;100327.05;110647;1235;61910;-66
2024/03/18 02:43:28;;;;;;;7.00;2.50;;;;;;;5.84;100.00;100330.38;110636;1240;60286;-67
2024/03/18 02:45:56;;;;;;;6.00;2.60;;;;;;;5.81;100.00;100329.70;110659;1237;74358;-66
2024/03/18 02:48:28;;;;;;;8.60;2.90;;;;;;;5.78;100.00;100331.10;110666;1236;72459;-65
2024/03/18 02:51:14;;;;;;;6.80;2.60;;;;;;;5.75;100.00;100325.19;110660;1235;71423;-65
2024/03/18 02:54:06;;;;;;;6.10;2.70;;;;;;;5.71;100.00;100325.84;110658;1239;60752;-65
2024/03/18 02:56:47;;;;;;;7.80;2.60;;;;;;;5.68;100.00;100327.15;110665;1235;60329;-65
2024/03/18 02:59:20;;;;;;;7.10;3.00;;;;;;;5.63;100.00;100325.67;110688;1239;73576;-66
2024/03/18 03:01:57;;;;;;;7.20;2.50;;;;;;;5.59;100.00;100324.57;110677;1239;71656;-65
2024/03/18 03:04:26;;;;;;;5.40;2.70;;;;;;;5.55;100.00;100317.27;110662;1239;73435;-65
2024/03/18 03:07:06;;;;;;;7.00;3.00;;;;;;;5.55;100.00;100317.74;110613;1240;60791;-65
2024/03/18 03:09:43;;;;;;;5.50;2.50;;;;;;;5.55;100.00;100319.23;110659;1239;60494;-67
2024/03/18 03:12:31;;;;;;;7.00;2.90;;;;;;;5.55;100.00;100318.59;110712;1235;72259;-66
2024/03/18 03:15:21;;;;;;;7.90;3.50;;;;;;;5.54;100.00;100314.13;110655;1236;72457;-66
2024/03/18 03:18:06;;;;;;;5.60;2.60;;;;;;;5.56;100.00;100314.96;110570;1236;71579;-66
2024/03/18 03:20:40;;;;;;;9.40;3.20;;;;;;;5.55;100.00;100316.52;110683;1235;60302;-65
2024/03/18 03:23:14;;;;;;;6.90;3.30;;;;;;;5.51;100.00;100313.45;110674;1235;60500;-66
2024/03/18 03:26:01;;;;;;;8.90;3.40;;;;;;;5.47;100.00;100314.33;110655;1235;72346;-65
2024/03/18 03:29:02;;;;;;;9.20;3.80;;;;;;;5.45;100.00;100314.64;110618;1236;73014;-65
2024/03/18 03:31:45;;;;;;;9.60;4.00;;;;;;;5.47;100.00;100309.81;110538;1240;71119;-66
2024/03/18 03:34:26;;;;;;;8.50;4.20;;;;;;;5.50;100.00;100309.43;110656;1235;60213;-65
2024/03/18 03:37:04;;;;;;;8.70;4.10;;;;;;;5.53;100.00;100308.73;110700;1235;60325;-66
2024/03/18 03:39:51;;;;;;;9.20;3.70;;;;;;;5.51;100.00;100314.44;110641;1240;73629;-64
2024/03/18 03:42:51;;;;;;;10.60;4.30;;;;;;;5.48;100.00;100311.02;110637;1235;73228;-65
2024/03/18 03:45:59;;;;;;;9.20;4.80;;;;;;;5.47;100.00;100317.14;110673;1240;72139;-66
2024/03/18 03:48:42;;;;;;;10.20;5.80;;;;;;;5.48;100.00;100315.20;110672;1235;60855;-64
2024/03/18 03:51:26;;;;;;;8.80;5.10;;;;;;;5.48;100.00;100314.20;110725;1237;60275;-65
2024/03/18 03:54:14;;;;;;;9.70;4.60;;;;;;;5.47;100.00;100311.68;110974;1234;74261;-66
2024/03/18 03:56:43;;;;;;;9.50;3.90;;;;;;;5.46;100.00;100314.34;111023;1236;72711;-65
2024/03/18 03:59:17;;;;;;;10.60;5.50;;;;;;;5.46;100.00;100309.85;111039;1236;72432;-66
2024/03/18 04:01:46;;;;;;;10.00;4.20;;;;;;;5.48;100.00;100308.89;111083;1234;59833;-66
2024/03/18 04:04:18;;;;;;;9.40;4.60;;;;;;;5.51;100.00;100309.30;111074;1233;60128;-66
2024/03/18 04:06:50;;;;;;;9.00;4.40;;;;;;;5.57;100.00;100308.52;111051;1234;72710;-66
2024/03/18 04:09:30;;;;;;;12.50;4.80;;;;;;;5.64;100.00;100308.98;111044;1234;73086;-65
2024/03/18 04:12:12;;;;;;;8.60;4.30;;;;;;;5.69;100.00;100305.61;111010;1233;73247;-66
2024/03/18 04:14:43;;;;;;;8.20;4.60;;;;;;;5.71;100.00;100305.20;110794;1233;60912;-66
2024/03/18 04:17:17;;;;;;;9.40;5.20;;;;;;;5.76;100.00;100306.73;111083;1233;61114;-65
2024/03/18 04:19:52;;;;;;;9.20;5.20;;;;;;;5.83;100.00;100306.30;111059;1234;73899;-66
2024/03/18 04:22:27;;;;;;;8.80;4.70;;;;;;;5.89;100.00;100308.66;111008;1234;71318;-66
2024/03/18 04:25:05;;;;;;;9.70;5.00;;;;;;;5.95;100.00;100309.40;111042;1233;72440;-66
2024/03/18 04:27:35;;;;;;;8.60;4.90;;;;;;;6.01;100.00;100311.48;111023;1234;61909;-66
2024/03/18 04:30:06;;;;;;;12.00;5.50;;;;;;;6.07;100.00;100308.33;111054;1234;60311;-65
2024/03/18 04:32:49;;;;;;;9.50;5.10;;;;;;;6.13;100.00;100310.95;111053;1235;73471;-65
2024/03/18 04:35:34;;;;;;;10.30;5.40;;;;;;;6.20;100.00;100315.06;111007;1234;73222;-66
2024/03/18 04:38:09;;;;;;;11.20;5.30;;;;;;;6.24;100.00;100314.56;110956;1236;71587;-65
2024/03/18 04:40:43;;;;;;;13.90;6.00;;;;;;;6.26;100.00;100314.25;110990;1233;61794;-64
2024/03/18 04:43:23;;;;;;;9.90;6.10;;;;;;;6.25;100.00;100318.36;110977;1233;60246;-65
2024/03/18 04:46:09;;;;;;;11.10;6.10;;;;;;;6.20;100.00;100318.45;110769;1233;72367;-66
2024/03/18 04:48:54;;;;;;;11.20;6.10;;;;;;;6.11;100.00;100318.91;110986;1234;73117;-66
2024/03/18 04:51:25;;;;;;;11.40;5.90;;;;;;;6.02;100.00;100315.33;110836;1233;72556;-65
2024/03/18 04:54:15;;;;;;;9.80;5.60;;;;;;;6.00;100.00;100318.30;111073;1234;61875;-66
2024/03/18 04:56:59;;;;;;;10.50;6.00;;;;;;;6.00;100.00;100317.15;111082;1234;60423;-66
2024/03/18 04:59:59;;;;;;;11.70;6.40;;;;;;;6.02;100.00;100315.00;111005;1234;74535;-65
2024/03/18 05:02:43;;;;;;;11.40;5.90;;;;;;;6.08;100.00;100317.31;110932;1233;71728;-67
2024/03/18 05:05:12;;;;;;;11.50;5.80;;;;;;;6.15;100.00;100320.05;111020;1234;72421;-66
2024/03/18 05:07:42;;;;;;;9.70;6.20;;;;;;;6.18;100.00;100321.30;110984;1233;61674;-66
2024/03/18 05:10:10;;;;;;;12.20;6.30;;;;;;;6.21;100.00;100319.69;111053;1235;60230;-66
2024/03/18 05:12:38;;;;;;;11.20;6.10;;;;;;;6.23;100.00;100322.39;110933;1233;72300;-67
2024/03/18 05:15:08;;;;;;;9.30;5.70;;;;;;;6.25;100.00;100324.55;111057;1234;72620;-66
2024/03/18 05:17:35;;;;;;;10.80;5.30;;;;;;;6.25;100.00;100326.76;111017;1234;73505;-66
2024/03/18 05:20:04;;;;;;;10.70;5.90;;;;;;;6.23;100.00;100326.42;110881;1233;60663;-66
2024/03/18 05:22:32;;;;;;;10.00;5.70;;;;;;;6.24;100.00;100328.95;110992;1233;60312;-66
2024/03/18 05:25:05;;;;;;;7.70;4.60;;;;;;;6.27;100.00;100331.73;111047;1234;73752;-65
2024/03/18 05:27:32;;;;;;;10.20;5.10;;;;;;;6.31;100.00;100332.96;111038;1235;71387;-65
2024/03/18 05:30:00;;;;;;;10.70;4.80;;;;;;;6.33;100.00;100335.19;110938;1238;73279;-66
2024/03/18 05:32:27;;;;;;;10.50;4.80;;;;;;;6.34;100.00;100338.65;110977;1234;60420;-65
2024/03/18 05:34:55;;;;;;;12.00;4.60;;;;;;;6.36;100.00;100336.73;110958;1233;60425;-65
2024/03/18 05:37:22;;;;;;;10.80;4.00;;;;;;;6.41;100.00;100338.09;110986;1235;74353;-65
2024/03/18 05:39:49;;;;;;;8.80;3.30;;;;;;;6.42;100.00;100343.11;110988;1234;71561;-65
2024/03/18 05:42:16;;;;;;;8.30;3.40;;;;;;;6.41;100.00;100334.53;110953;1233;71630;-65
2024/03/18 05:44:43;;;;;;;8.30;3.40;;;;;;;6.38;100.00;100326.73;110999;1233;61964;-66
2024/03/18 05:47:10;;;;;;;7.20;2.80;;;;;;;6.38;100.00;100333.11;111052;1232;61162;-65
2024/03/18 05:49:37;;;;;;;7.80;2.70;;;;;;;6.38;100.00;100334.26;111049;1235;72989;-65
2024/03/18 05:52:05;;;;;;;9.50;3.60;;;;;;;6.38;100.00;100339.10;111064;1236;71219;-67
2024/03/18 05:54:31;;;;;;;9.30;4.40;;;;;;;6.39;100.00;100334.67;110985;1234;73204;-67
2024/03/18 05:56:58;;;;;;;10.60;6.30;;;;;;;6.45;100.00;100338.49;111025;1233;61183;-65
2024/03/18 05:59:25;;;;;;;10.20;5.70;;;;;;;6.50;100.00;100338.91;110950;1233;61050;-65
2024/03/18 06:01:52;;;;;;;11.20;5.90;;;;;;;6.51;100.00;100338.88;111006;1234;75340;-65
2024/03/18 06:04:20;;;;;;;10.40;5.60;;;;;;;6.53;100.00;100340.56;111039;1233;72554;-65
2024/03/18 06:06:46;;;;;;;12.00;6.40;;;;;;;6.58;100.00;100338.76;110969;1234;72278;-66
2024/03/18 06:09:13;;;;;;;9.90;5.50;;;;;;;6.62;100.00;100340.22;111075;1234;61970;-65
2024/03/18 06:11:40;;;;;;;11.20;5.80;;;;;;;6.67;100.00;100343.70;110954;1232;61108;-66
2024/03/18 06:14:08;;;;;;;8.30;4.70;;;;;;;6.71;100.00;100339.64;111107;1234;73608;-66
2024/03/18 06:16:36;;;;;;;8.70;3.90;;;;;;;6.73;100.00;100340.52;111043;1234;72863;-67
2024/03/18 06:19:04;;;;;;;10.40;4.20;;;;;;;6.69;100.00;100341.79;111066;1233;70999;-66
2024/03/18 06:21:42;;;;;;;9.60;3.60;;;;;;;6.67;100.00;100338.66;111060;1233;61213;-70
2024/03/18 06:24:20;;;;;;;11.30;4.40;;;;;;;6.62;100.00;100335.61;111049;1233;61099;-67
2024/03/18 06:26:47;;;;;;;9.10;3.90;;;;;;;6.62;100.00;100335.45;111055;1236;74348;-66
2024/03/18 06:29:14;;;;;;;8.10;4.00;;;;;;;6.62;100.00;100336.19;111061;1237;72685;-66
2024/03/18 06:31:40;;;;;;;9.90;3.90;;;;;;;6.64;100.00;100332.07;111023;1233;71095;-67
2024/03/18 06:34:07;;;;;;;8.50;3.30;;;;;;;6.68;100.00;100329.92;111064;1232;61731;-65
2024/03/18 06:36:35;;;;;;;8.30;3.30;;;;;;;6.68;100.00;100329.35;110877;1234;61034;-65
2024/03/18 06:39:03;;;;;;;6.20;3.10;;;;;;;6.67;100.00;100329.63;111004;1234;74602;-64
2024/03/18 06:41:31;;;;;;;8.20;3.40;;;;;;;6.59;100.00;100329.54;111052;1233;72512;-65
2024/03/18 06:43:58;;;;;;;9.40;3.40;;;;;;;6.64;100.00;100324.59;111012;1234;73786;-65
2024/03/18 06:46:25;;;;;;;7.90;3.40;;;;;;;6.67;100.00;100325.54;110845;1233;61177;-65
2024/03/18 06:48:52;;;;;;;9.20;3.60;;;;;;;6.71;100.00;100327.05;110959;1233;61086;-64
2024/03/18 06:51:19;;;;;;;9.10;3.40;;;;;;;6.77;100.00;100326.59;111002;1233;74560;-65
2024/03/18 06:53:46;;;;;;;7.30;3.20;;;;;;;6.81;100.00;100325.61;111064;1234;72711;-65
2024/03/18 06:56:13;;;;;;;5.40;3.20;;;;;;;6.81;100.00;100326.88;110957;1234;72980;-64
2024/03/18 06:58:40;;;;;;;11.40;4.80;;;;;;;6.77;100.00;100324.30;111023;1233;61070;-66
2024/03/18 07:01:09;;;;;;;7.20;4.30;;;;;;;6.79;100.00;100324.67;111094;1234;60081;-65
2024/03/18 07:03:37;;;;;;;8.50;4.50;;;;;;;6.83;100.00;100325.64;110998;1232;72325;-66
2024/03/18 07:06:04;;;;;;;9.50;4.50;;;;;;;6.89;100.00;100326.21;110718;1234;72410;-65
2024/03/18 07:08:31;;;;;;;8.60;4.70;;;;;;;6.96;100.00;100327.04;111397;1237;72683;-67
2024/03/18 07:10:59;;;;;;;7.90;4.10;;;;;;;7.05;100.00;100322.52;110994;1234;61763;-66
2024/03/18 07:13:26;;;;;;;9.10;4.30;;;;;;;7.16;100.00;100325.69;111449;1233;60373;-67
2024/03/18 07:15:54;;;;;;;9.40;4.90;;;;;;;7.27;100.00;100324.77;110803;1236;75904;-66
2024/03/18 07:18:22;;;;;;;12.10;5.40;;;;;;;7.36;100.00;100320.70;111914;1233;72698;-67
2024/03/18 07:20:51;;;;;;;8.90;4.50;;;;;;;7.40;100.00;100316.52;110811;1232;74857;-67
2024/03/18 07:23:22;;;;;;;10.70;5.40;;;;;;;7.48;100.00;100315.20;110685;1234;61780;-65
2024/03/18 07:25:52;;;;;;;8.40;5.10;;;;;;;7.48;100.00;100319.14;110867;1233;61073;-66
2024/03/18 07:28:20;;;;;;;8.50;4.50;;;;;;;7.46;100.00;100319.95;110830;1235;75739;-66
2024/03/18 07:30:48;;;;;;;9.10;4.90;;;;;;;7.48;100.00;100317.28;110885;1233;73281;-66
2024/03/18 07:33:16;;;;;;;10.10;5.80;;;;;;;7.51;100.00;100319.61;110911;1234;71703;-66
2024/03/18 07:35:43;;;;;;;7.90;5.40;;;;;;;7.54;100.00;100318.60;110799;1234;61740;-66
2024/03/18 07:38:10;;;;;;;9.40;5.70;;;;;;;7.57;100.00;100317.43;110839;1233;61887;-65
2024/03/18 07:40:45;;;;;;;11.10;6.30;;;;;;;7.56;100.00;100312.88;110856;1234;74658;-66
2024/03/18 07:43:15;;;;;;;9.40;5.50;;;;;;;7.56;100.00;100310.52;110835;1236;72760;-66
2024/03/18 07:45:42;;;;;;;9.30;5.70;;;;;;;7.64;100.00;100309.98;110813;1236;72871;-66
2024/03/18 07:48:11;;;;;;;10.30;6.00;;;;;;;7.75;100.00;100307.54;111460;1234;62408;-65
2024/03/18 07:50:38;;;;;;;13.50;8.00;;;;;;;7.85;100.00;100306.50;110863;1237;61128;-65
2024/03/18 07:53:05;;;;;;;11.00;7.80;;;;;;;7.92;100.00;100307.04;110855;1237;74618;-65
2024/03/18 07:55:32;;;;;;;16.20;9.00;;;;;;;7.93;100.00;100309.70;110903;1235;72679;-66
2024/03/18 07:57:59;;;;;;;14.30;8.80;;;;;;;7.89;100.00;100308.31;110895;1236;71613;-65
2024/03/18 08:00:26;;;;;;;13.40;7.60;;;;;;;7.86;100.00;100304.55;110876;1233;61987;-66
2024/03/18 08:02:53;;;;;;;11.70;7.90;;;;;;;7.85;100.00;100302.41;110750;1234;61791;-66
2024/03/18 08:05:20;;;;;;;11.30;7.60;;;;;;;7.87;100.00;100296.69;110650;1234;73643;-65
2024/03/18 08:07:48;;;;;;;11.40;7.50;;;;;;;7.89;100.00;100299.05;110811;1233;72806;-65
2024/03/18 08:10:15;;;;;;;12.50;8.30;;;;;;;7.92;100.00;100297.77;110824;1233;71595;-64
2024/03/18 08:12:42;;;;;;;14.80;8.20;;;;;;;7.95;100.00;100295.21;110876;1234;62739;-66
2024/03/18 08:15:12;;;;;;;12.70;8.10;;;;;;;7.96;100.00;100296.08;110901;1234;61066;-65
2024/03/18 08:17:39;;;;;;;12.90;7.70;;;;;;;7.98;100.00;100301.84;110873;1235;74512;-65
2024/03/18 08:20:07;;;;;;;12.40;6.90;;;;;;;7.99;100.00;100297.71;110882;1234;71839;-66
2024/03/18 08:22:35;;;;;;;12.10;7.30;;;;;;;7.95;100.00;100301.91;110882;1234;71878;-66
2024/03/18 08:25:02;;;;;;;13.30;7.90;;;;;;;7.91;100.00;100298.98;110871;1233;61105;-66
2024/03/18 08:27:32;;;;;;;13.60;9.30;;;;;;;7.93;100.00;100297.84;110979;1233;61638;-66
2024/03/18 08:29:59;;;;;;;14.30;9.40;;;;;;;7.95;100.00;100296.80;111426;1234;73739;-65
2024/03/18 08:32:26;;;;;;;17.20;10.80;;;;;;;8.01;100.00;100296.40;110957;1233;71538;-66
2024/03/18 08:34:53;;;;;;;14.10;9.10;;;;;;;8.09;100.00;100296.56;110991;1233;72436;-65
2024/03/18 08:37:21;;;;;;;12.90;8.40;;;;;;;8.14;100.00;100297.96;110965;1233;61214;-66
2024/03/18 08:39:48;;;;;;;14.50;9.00;;;;;;;8.20;100.00;100294.63;110929;1233;61283;-64
2024/03/18 08:42:15;;;;;;;13.40;9.40;;;;;;;8.26;100.00;100295.48;110827;1234;74005;-65
2024/03/18 08:44:42;;;;;;;14.10;8.80;;;;;;;8.29;100.00;100290.38;111087;1232;72347;-65
2024/03/18 08:47:09;;;;;;;16.20;9.90;;;;;;;8.24;100.00;100288.48;110897;1236;72358;-65
2024/03/18 08:49:36;;;;;;;15.50;8.90;;;;;;;8.19;100.00;100289.45;110962;1232;61829;-65
2024/03/18 08:52:03;;;;;;;16.00;9.70;;;;;;;8.17;100.00;100291.44;110971;1234;61307;-66
2024/03/18 08:54:32;;;;;;;18.30;10.20;;;;;;;8.18;100.00;100290.34;111057;1234;74772;-66
2024/03/18 08:57:00;;;;;;;15.70;10.10;;;;;;;8.17;100.00;100287.19;111230;1234;70857;-66
2024/03/18 08:59:28;;;;;;;13.90;10.10;;;;;;;8.18;100.00;100286.30;111081;1233;71456;-66
2024/03/18 09:01:55;;;;;;;13.10;10.00;;;;;;;8.19;100.00;100285.83;111096;1233;61105;-67
2024/03/18 09:04:22;;;;;;;15.90;10.30;;;;;;;8.20;100.00;100281.80;111086;1233;61100;-66
2024/03/18 09:06:52;;;;;;;17.40;11.00;;;;;;;8.20;100.00;100284.14;111111;1234;75605;-67
2024/03/18 09:09:22;;;;;;;15.50;10.20;;;;;;;8.20;100.00;100286.23;111074;1234;72650;-65
2024/03/18 09:11:49;;;;;;;17.10;9.20;;;;;;;8.20;100.00;100284.30;111056;1233;73689;-66
2024/03/18 09:14:16;;;;;;;15.40;9.50;;;;;;;8.18;100.00;100280.34;110933;1233;61948;-66
2024/03/18 09:16:43;;;;;;;17.20;9.80;;;;;;;8.17;100.00;100283.56;111032;1233;61296;-67
2024/03/18 09:19:10;;;;;;;14.30;9.60;;;;;;;8.18;100.00;100280.70;111095;1235;75800;-67
2024/03/18 09:21:38;;;;;;;13.60;10.30;;;;;;;8.20;100.00;100275.90;111247;1234;71672;-68
2024/03/18 09:24:05;;;;;;;16.00;10.60;;;;;;;8.25;100.00;100276.75;111093;1236;73779;-67
2024/03/18 09:26:32;;;;;;;18.70;12.70;;;;;;;8.31;100.00;100276.02;111031;1232;61848;-65
2024/03/18 09:28:59;;;;;;;16.30;11.10;;;;;;;8.35;100.00;100269.80;111097;1234;59068;-65
2024/03/18 09:31:26;;;;;;;17.00;11.50;;;;;;;8.42;100.00;100267.55;111075;1232;74760;-66
2024/03/18 09:33:53;;;;;;;14.60;11.40;;;;;;;8.46;100.00;100267.42;111044;1234;72601;-66
2024/03/18 09:36:20;;;;;;;16.60;12.10;;;;;;;8.46;100.00;100266.81;111044;1233;71400;-66
2024/03/18 09:38:48;;;;;;;16.20;12.30;;;;;;;8.44;100.00;100262.78;111019;1234;61805;-66
2024/03/18 09:41:18;;;;;;;17.10;11.90;;;;;;;8.18;100.00;100262.14;111055;1234;61197;-65
2024/03/18 09:43:45;;;;;;;14.40;10.70;;;;;;;8.22;100.00;100262.51;111109;1233;74625;-66
2024/03/18 09:46:14;;;;;;;16.60;10.60;;;;;;;8.16;100.00;100259.23;111122;1234;72498;-66
2024/03/18 09:48:41;;;;;;;14.20;10.00;;;;;;;8.09;100.00;100259.48;111122;1236;73651;-66
2024/03/18 09:51:17;;;;;;;17.40;10.40;;;;;;;8.04;100.00;100256.85;111149;1233;61191;-66
2024/03/18 09:53:48;;;;;;;10.70;7.00;;;;;;;8.02;100.00;100258.05;111121;1234;61103;-64
2024/03/18 09:56:22;;;;;;;12.50;7.90;;;;;;;8.01;100.00;100255.40;111017;1233;75739;-66
2024/03/18 09:58:57;;;;;;;11.60;7.20;;;;;;;8.03;100.00;100254.09;111019;1235;72585;-67
2024/03/18 10:01:25;;;;;;;11.80;8.00;;;;;;;8.03;100.00;100251.64;110971;1233;72933;-66
2024/03/18 10:03:58;;;;;;;10.80;7.00;;;;;;;7.25;100.00;100259.42;111143;1232;61169;-66
2024/03/18 10:06:42;;;;;;;10.30;5.70;;;;;;;7.01;100.00;100257.99;111031;1233;61356;-66
2024/03/18 10:09:36;;;;;;;10.30;5.00;;;;;;;6.92;100.00;100260.22;111004;1234;74264;-65
2024/03/18 10:12:17;;;;;;;6.70;4.30;;;;;;;6.83;100.00;100255.82;110986;1234;72631;-65
2024/03/18 10:14:48;;;;;;;9.40;4.20;;;;;;;6.75;100.00;100253.77;111109;1234;73758;-66
2024/03/18 10:17:23;;;;;;;7.70;4.30;;;;;;;6.67;100.00;100249.08;111011;1233;61425;-66
2024/03/18 10:20:28;;;;;;;7.30;3.90;;;;;;;6.59;100.00;100246.21;111030;1232;61210;-66
2024/03/18 10:23:28;;;;;;;8.10;3.20;;;;;;;6.55;100.00;100246.30;110971;1234;74853;-66
2024/03/18 10:26:07;;;;;;;8.10;3.40;;;;;;;6.52;100.00;100248.38;111033;1237;72683;-67
2024/03/18 10:28:48;;;;;;;9.20;3.20;;;;;;;6.46;100.00;100248.25;111028;1234;72465;-69
2024/03/18 10:31:44;;;;;;;5.50;2.40;;;;;;;6.44;100.00;100245.56;110948;1234;61837;-66
2024/03/18 10:34:46;;;;;;;6.40;2.50;;;;;;;6.44;100.00;100243.86;110876;1233;61350;-66
2024/03/18 10:37:40;;;;;;;6.60;1.90;;;;;;;6.41;100.00;100245.19;110919;1233;75904;-68
2024/03/18 10:40:35;;;;;;;6.40;2.30;;;;;;;6.33;100.00;100249.03;111140;1231;73865;-66
2024/03/18 10:43:40;;;;;;;7.80;2.30;;;;;;;6.29;100.00;100247.52;111090;1232;72300;-65
2024/03/18 10:46:37;;;;;;;8.00;2.30;;;;;;;6.25;100.00;100241.02;111062;1231;63136;-66
2024/03/18 10:49:37;;;;;;;6.90;2.00;;;;;;;6.21;100.00;100237.23;111046;1231;61102;-65
2024/03/18 10:52:43;;;;;;;6.00;2.00;;;;;;;6.17;100.00;100240.01;111054;1231;75819;-66
2024/03/18 10:55:37;;;;;;;6.20;2.10;;;;;;;6.13;100.00;100238.77;111070;1231;73778;-65
2024/03/18 10:58:19;;;;;;;7.00;2.40;;;;;;;6.12;100.00;100229.95;111039;1231;73484;-65
2024/03/18 11:01:07;;;;;;;8.10;2.40;;;;;;;6.11;100.00;100230.20;111043;1231;63221;-66
2024/03/18 11:11:27;;;;;;;8.00;2.40;;;;;;;6.11;100.00;100226.59;111072;1231;69520;-66
2024/03/18 11:14:00;;;;;;;7.40;3.00;;;;;;;6.11;100.00;100219.74;111155;1231;72752;-66
2024/03/18 11:16:31;;;;;;;6.70;2.40;;;;;;;6.12;100.00;100219.39;111145;1236;62150;-65
2024/03/18 11:19:03;;;;;;;6.50;2.70;;;;;;;6.10;100.00;100221.21;111160;1231;61057;-66
2024/03/18 11:21:30;;;;;;;5.70;2.40;;;;;;;6.06;100.00;100222.35;111053;1231;74414;-67
2024/03/18 11:24:00;;;;;;;9.50;3.00;;;;;;;6.03;100.00;100224.10;111138;1231;73900;-67
2024/03/18 11:26:27;;;;;;;8.60;2.90;;;;;;;5.95;100.00;100226.15;111159;1231;72683;-66
2024/03/18 11:29:08;;;;;;;5.40;2.30;;;;;;;5.94;100.00;100230.91;111125;1231;63099;-67
2024/03/18 11:31:38;;;;;;;7.40;2.50;;;;;;;5.99;100.00;100226.38;111162;1231;61312;-67
2024/03/18 11:34:09;;;;;;;6.70;2.30;;;;;;;6.06;100.00;100224.99;111136;1231;74599;-66
2024/03/18 11:36:39;;;;;;;8.60;2.50;;;;;;;6.10;100.00;100220.21;111170;1231;72861;-66
2024/03/18 11:39:12;;;;;;;7.90;2.70;;;;;;;6.13;100.00;100220.42;111168;1235;73567;-65
2024/03/18 11:41:39;;;;;;;5.30;2.50;;;;;;;6.17;100.00;100223.61;111136;1231;61581;-66
2024/03/18 11:44:06;;;;;;;7.50;2.80;;;;;;;6.18;100.00;100219.86;111153;1231;59071;-66
2024/03/18 11:46:35;;;;;;;6.00;2.20;;;;;;;6.16;100.00;100221.06;111144;1231;74557;-68
2024/03/18 11:49:08;;;;;;;5.30;2.30;;;;;;;6.13;100.00;100221.38;111158;1231;71448;-66
2024/03/18 11:51:35;;;;;;;7.00;2.60;;;;;;;6.12;100.00;100215.89;111115;1236;72559;-67
2024/03/18 11:54:05;;;;;;;6.70;2.50;;;;;;;6.12;100.00;100219.35;111162;1231;62927;-66
2024/03/18 11:56:32;;;;;;;6.00;2.50;;;;;;;6.12;100.00;100213.15;111053;1231;60999;-66
2024/03/18 11:59:02;;;;;;;7.70;2.80;;;;;;;6.14;100.00;100213.48;111127;1231;74431;-67
2024/03/18 12:01:30;;;;;;;7.50;2.60;;;;;;;6.12;100.00;100213.14;111062;1231;72852;-65
2024/03/18 12:03:57;;;;;;;7.40;2.50;;;;;;;6.07;100.00;100213.45;111161;1232;72430;-65
2024/03/18 12:06:24;;;;;;;6.60;2.70;;;;;;;5.97;100.00;100211.24;111015;1231;60334;-66
2024/03/18 12:08:51;;;;;;;7.80;2.40;;;;;;;5.93;100.00;100206.77;111171;1231;61191;-66